Paris, Illinois
Current Conditions -  °F | °C
As of 9:15 AM on Thursday 18 Dec 2014 (Local Time) from KPRG Reporting Station
Overcast Overcast  
Wind Chill: 27°   Ceiling: 1600
Heat Index: 27°   Visibility: 10mi
Dew Point: 22°   Wind: 0mph
Humidity: 82%   Direction: NA
Pressure: 30.32"   Gusts: NA
Location:  39.61°N, 87.69°W
Report Text: KPRG 181515Z AUTO 00000KT 10SM OVC016 M03/M06 A3032 RMK AO2 T10301057
Loading
Personal Weather Stations






























Interactive Weather Map New forecast layout! Learn more

10-Day Weather Forecast

Advertisements
Track Severe Weather on mobile